sensor_id;sensor_type;location;lat;lon;timestamp;P1;durP1;ratioP1;P2;durP2;ratioP2
51358;SDS011;37448;51.588;7.248;2023-02-23T00:00:49;46.83;;;23.75;;
51358;SDS011;37448;51.588;7.248;2023-02-23T00:02:49;36.25;;;22.30;;
51358;SDS011;37448;51.588;7.248;2023-02-23T00:04:50;42.15;;;22.52;;
51358;SDS011;37448;51.588;7.248;2023-02-23T00:06:50;37.38;;;23.10;;
51358;SDS011;37448;51.588;7.248;2023-02-23T00:08:52;41.28;;;24.73;;
51358;SDS011;37448;51.588;7.248;2023-02-23T00:10:52;38.72;;;21.90;;
51358;SDS011;37448;51.588;7.248;2023-02-23T00:12:57;40.55;;;22.25;;
51358;SDS011;37448;51.588;7.248;2023-02-23T00:14:58;40.17;;;22.65;;
51358;SDS011;37448;51.588;7.248;2023-02-23T00:16:59;46.17;;;24.67;;
51358;SDS011;37448;51.588;7.248;2023-02-23T00:19:00;38.92;;;22.83;;
51358;SDS011;37448;51.588;7.248;2023-02-23T00:21:01;44.33;;;23.25;;
51358;SDS011;37448;51.588;7.248;2023-02-23T00:23:02;39.97;;;23.85;;
51358;SDS011;37448;51.588;7.248;2023-02-23T00:25:03;40.72;;;22.90;;
51358;SDS011;37448;51.588;7.248;2023-02-23T00:27:08;44.22;;;22.90;;
51358;SDS011;37448;51.588;7.248;2023-02-23T00:29:12;44.35;;;23.85;;
51358;SDS011;37448;51.588;7.248;2023-02-23T00:31:18;44.65;;;24.40;;
51358;SDS011;37448;51.588;7.248;2023-02-23T00:33:24;40.38;;;21.40;;
51358;SDS011;37448;51.588;7.248;2023-02-23T00:35:24;40.65;;;23.60;;
51358;SDS011;37448;51.588;7.248;2023-02-23T00:37:25;43.17;;;23.45;;
51358;SDS011;37448;51.588;7.248;2023-02-23T00:39:25;40.83;;;24.63;;
51358;SDS011;37448;51.588;7.248;2023-02-23T00:41:28;39.33;;;23.67;;
51358;SDS011;37448;51.588;7.248;2023-02-23T00:43:28;44.75;;;23.27;;
51358;SDS011;37448;51.588;7.248;2023-02-23T00:45:32;43.22;;;23.05;;
51358;SDS011;37448;51.588;7.248;2023-02-23T00:47:33;46.83;;;24.52;;
51358;SDS011;37448;51.588;7.248;2023-02-23T00:49:35;41.53;;;24.27;;
51358;SDS011;37448;51.588;7.248;2023-02-23T00:51:36;40.33;;;23.40;;
51358;SDS011;37448;51.588;7.248;2023-02-23T00:53:39;42.25;;;23.85;;
51358;SDS011;37448;51.588;7.248;2023-02-23T00:55:40;42.05;;;25.20;;
51358;SDS011;37448;51.588;7.248;2023-02-23T00:57:40;44.95;;;26.00;;
51358;SDS011;37448;51.588;7.248;2023-02-23T00:59:41;48.05;;;24.98;;
51358;SDS011;37448;51.588;7.248;2023-02-23T01:01:42;45.03;;;25.27;;
51358;SDS011;37448;51.588;7.248;2023-02-23T01:03:42;43.08;;;24.58;;
51358;SDS011;37448;51.588;7.248;2023-02-23T01:05:44;46.45;;;24.83;;
51358;SDS011;37448;51.588;7.248;2023-02-23T01:07:45;44.65;;;24.73;;
51358;SDS011;37448;51.588;7.248;2023-02-23T01:09:45;38.22;;;22.42;;
51358;SDS011;37448;51.588;7.248;2023-02-23T01:11:45;44.60;;;24.50;;
51358;SDS011;37448;51.588;7.248;2023-02-23T01:13:50;48.65;;;25.48;;
51358;SDS011;37448;51.588;7.248;2023-02-23T01:15:51;47.08;;;25.40;;
51358;SDS011;37448;51.588;7.248;2023-02-23T01:17:52;41.88;;;24.20;;
51358;SDS011;37448;51.588;7.248;2023-02-23T01:19:52;41.83;;;23.35;;
51358;SDS011;37448;51.588;7.248;2023-02-23T01:21:54;44.47;;;23.20;;
51358;SDS011;37448;51.588;7.248;2023-02-23T01:23:55;45.45;;;24.35;;
51358;SDS011;37448;51.588;7.248;2023-02-23T01:25:55;41.95;;;23.63;;
51358;SDS011;37448;51.588;7.248;2023-02-23T01:27:57;45.33;;;24.75;;
51358;SDS011;37448;51.588;7.248;2023-02-23T01:29:58;46.90;;;25.25;;
51358;SDS011;37448;51.588;7.248;2023-02-23T01:31:58;49.08;;;25.65;;
51358;SDS011;37448;51.588;7.248;2023-02-23T01:33:59;39.42;;;22.58;;
51358;SDS011;37448;51.588;7.248;2023-02-23T01:36:03;44.83;;;25.60;;
51358;SDS011;37448;51.588;7.248;2023-02-23T01:38:03;43.97;;;25.20;;
51358;SDS011;37448;51.588;7.248;2023-02-23T01:40:04;46.85;;;26.02;;
51358;SDS011;37448;51.588;7.248;2023-02-23T01:42:13;45.03;;;26.65;;
51358;SDS011;37448;51.588;7.248;2023-02-23T01:46:14;45.97;;;24.67;;
51358;SDS011;37448;51.588;7.248;2023-02-23T01:48:18;40.45;;;22.92;;
51358;SDS011;37448;51.588;7.248;2023-02-23T01:50:24;44.65;;;24.60;;
51358;SDS011;37448;51.588;7.248;2023-02-23T01:52:26;44.78;;;24.48;;
51358;SDS011;37448;51.588;7.248;2023-02-23T01:54:32;44.35;;;24.65;;
51358;SDS011;37448;51.588;7.248;2023-02-23T01:56:39;45.08;;;24.30;;
51358;SDS011;37448;51.588;7.248;2023-02-23T01:58:44;43.65;;;23.83;;
51358;SDS011;37448;51.588;7.248;2023-02-23T02:00:50;43.83;;;24.55;;
51358;SDS011;37448;51.588;7.248;2023-02-23T02:05:01;42.38;;;23.08;;
51358;SDS011;37448;51.588;7.248;2023-02-23T02:07:03;46.60;;;25.17;;
51358;SDS011;37448;51.588;7.248;2023-02-23T02:09:06;46.00;;;24.85;;
51358;SDS011;37448;51.588;7.248;2023-02-23T02:11:13;46.08;;;23.63;;
51358;SDS011;37448;51.588;7.248;2023-02-23T02:13:30;45.90;;;24.33;;
51358;SDS011;37448;51.588;7.248;2023-02-23T02:15:32;49.75;;;27.77;;
51358;SDS011;37448;51.588;7.248;2023-02-23T02:17:41;44.75;;;25.25;;
51358;SDS011;37448;51.588;7.248;2023-02-23T02:19:54;40.83;;;23.88;;
51358;SDS011;37448;51.588;7.248;2023-02-23T02:29:37;45.25;;;25.45;;
51358;SDS011;37448;51.588;7.248;2023-02-23T02:31:55;45.63;;;25.55;;
51358;SDS011;37448;51.588;7.248;2023-02-23T02:34:20;50.20;;;26.98;;
51358;SDS011;37448;51.588;7.248;2023-02-23T02:39:47;49.42;;;27.20;;
51358;SDS011;37448;51.588;7.248;2023-02-23T02:44:19;43.80;;;25.23;;
51358;SDS011;37448;51.588;7.248;2023-02-23T02:46:28;54.78;;;27.27;;
51358;SDS011;37448;51.588;7.248;2023-02-23T02:48:49;43.97;;;23.80;;
51358;SDS011;37448;51.588;7.248;2023-02-23T02:51:02;45.15;;;24.75;;
51358;SDS011;37448;51.588;7.248;2023-02-23T02:53:05;50.55;;;26.38;;
51358;SDS011;37448;51.588;7.248;2023-02-23T02:55:10;51.70;;;27.40;;
51358;SDS011;37448;51.588;7.248;2023-02-23T02:57:15;45.67;;;25.60;;
51358;SDS011;37448;51.588;7.248;2023-02-23T02:59:18;47.15;;;25.65;;
51358;SDS011;37448;51.588;7.248;2023-02-23T03:01:38;49.83;;;26.15;;
51358;SDS011;37448;51.588;7.248;2023-02-23T03:03:57;52.75;;;28.00;;
51358;SDS011;37448;51.588;7.248;2023-02-23T03:06:33;47.45;;;24.75;;
51358;SDS011;37448;51.588;7.248;2023-02-23T03:09:40;53.65;;;25.83;;
51358;SDS011;37448;51.588;7.248;2023-02-23T03:11:39;52.03;;;25.35;;
51358;SDS011;37448;51.588;7.248;2023-02-23T03:19:14;50.30;;;26.35;;
51358;SDS011;37448;51.588;7.248;2023-02-23T03:21:53;52.47;;;26.35;;
51358;SDS011;37448;51.588;7.248;2023-02-23T03:27:09;48.28;;;25.58;;
51358;SDS011;37448;51.588;7.248;2023-02-23T03:29:40;53.08;;;27.50;;
51358;SDS011;37448;51.588;7.248;2023-02-23T03:32:17;53.42;;;27.02;;
51358;SDS011;37448;51.588;7.248;2023-02-23T03:34:58;50.08;;;25.92;;
51358;SDS011;37448;51.588;7.248;2023-02-23T03:37:26;48.28;;;25.58;;
51358;SDS011;37448;51.588;7.248;2023-02-23T03:39:53;57.10;;;26.52;;
51358;SDS011;37448;51.588;7.248;2023-02-23T03:42:19;49.25;;;27.15;;
51358;SDS011;37448;51.588;7.248;2023-02-23T03:44:43;55.67;;;28.08;;
51358;SDS011;37448;51.588;7.248;2023-02-23T03:47:05;52.72;;;27.25;;
51358;SDS011;37448;51.588;7.248;2023-02-23T03:49:26;46.80;;;26.10;;
51358;SDS011;37448;51.588;7.248;2023-02-23T03:51:52;51.58;;;25.45;;
51358;SDS011;37448;51.588;7.248;2023-02-23T03:54:17;46.33;;;26.17;;
51358;SDS011;37448;51.588;7.248;2023-02-23T03:56:43;54.95;;;27.40;;
51358;SDS011;37448;51.588;7.248;2023-02-23T03:59:06;53.20;;;28.73;;
51358;SDS011;37448;51.588;7.248;2023-02-23T04:01:28;52.55;;;26.48;;
51358;SDS011;37448;51.588;7.248;2023-02-23T04:03:50;58.63;;;28.77;;
51358;SDS011;37448;51.588;7.248;2023-02-23T04:06:12;57.50;;;26.88;;
51358;SDS011;37448;51.588;7.248;2023-02-23T04:08:35;53.70;;;28.98;;
51358;SDS011;37448;51.588;7.248;2023-02-23T04:11:16;50.90;;;27.00;;
51358;SDS011;37448;51.588;7.248;2023-02-23T04:13:41;54.80;;;27.80;;
51358;SDS011;37448;51.588;7.248;2023-02-23T04:16:01;53.25;;;28.60;;
51358;SDS011;37448;51.588;7.248;2023-02-23T04:18:05;50.35;;;27.42;;
51358;SDS011;37448;51.588;7.248;2023-02-23T04:20:09;54.47;;;28.95;;
51358;SDS011;37448;51.588;7.248;2023-02-23T04:22:11;60.10;;;30.95;;
51358;SDS011;37448;51.588;7.248;2023-02-23T04:24:11;58.53;;;28.23;;
51358;SDS011;37448;51.588;7.248;2023-02-23T04:26:12;59.60;;;31.38;;
51358;SDS011;37448;51.588;7.248;2023-02-23T04:28:12;56.03;;;27.90;;
51358;SDS011;37448;51.588;7.248;2023-02-23T04:30:13;60.42;;;30.02;;
51358;SDS011;37448;51.588;7.248;2023-02-23T04:32:14;61.17;;;29.80;;
51358;SDS011;37448;51.588;7.248;2023-02-23T04:34:16;60.00;;;30.05;;
51358;SDS011;37448;51.588;7.248;2023-02-23T04:36:17;61.58;;;28.77;;
51358;SDS011;37448;51.588;7.248;2023-02-23T04:38:17;58.53;;;29.13;;
51358;SDS011;37448;51.588;7.248;2023-02-23T04:40:17;56.67;;;27.98;;
51358;SDS011;37448;51.588;7.248;2023-02-23T04:42:18;61.10;;;28.95;;
51358;SDS011;37448;51.588;7.248;2023-02-23T04:44:19;57.67;;;28.80;;
51358;SDS011;37448;51.588;7.248;2023-02-23T04:46:19;61.83;;;29.23;;
51358;SDS011;37448;51.588;7.248;2023-02-23T04:48:20;61.20;;;31.25;;
51358;SDS011;37448;51.588;7.248;2023-02-23T04:50:20;57.03;;;28.08;;
51358;SDS011;37448;51.588;7.248;2023-02-23T04:52:20;57.50;;;28.85;;
51358;SDS011;37448;51.588;7.248;2023-02-23T04:54:21;52.97;;;28.05;;
51358;SDS011;37448;51.588;7.248;2023-02-23T04:56:21;55.28;;;27.33;;
51358;SDS011;37448;51.588;7.248;2023-02-23T04:58:22;57.50;;;26.92;;
51358;SDS011;37448;51.588;7.248;2023-02-23T05:00:22;50.65;;;27.70;;
51358;SDS011;37448;51.588;7.248;2023-02-23T05:02:22;52.08;;;26.67;;
51358;SDS011;37448;51.588;7.248;2023-02-23T05:04:24;61.00;;;29.00;;
51358;SDS011;37448;51.588;7.248;2023-02-23T05:06:24;59.25;;;29.27;;
51358;SDS011;37448;51.588;7.248;2023-02-23T05:08:25;53.10;;;28.60;;
51358;SDS011;37448;51.588;7.248;2023-02-23T05:10:25;63.78;;;28.15;;
51358;SDS011;37448;51.588;7.248;2023-02-23T05:12:26;62.30;;;30.35;;
51358;SDS011;37448;51.588;7.248;2023-02-23T05:14:26;60.35;;;29.58;;
51358;SDS011;37448;51.588;7.248;2023-02-23T05:16:27;61.05;;;28.67;;
51358;SDS011;37448;51.588;7.248;2023-02-23T05:18:27;55.42;;;28.98;;
51358;SDS011;37448;51.588;7.248;2023-02-23T05:20:28;59.88;;;29.42;;
51358;SDS011;37448;51.588;7.248;2023-02-23T05:22:28;65.63;;;31.20;;
51358;SDS011;37448;51.588;7.248;2023-02-23T05:24:28;61.88;;;30.60;;
51358;SDS011;37448;51.588;7.248;2023-02-23T05:26:29;57.72;;;28.60;;
51358;SDS011;37448;51.588;7.248;2023-02-23T05:28:29;56.55;;;29.00;;
51358;SDS011;37448;51.588;7.248;2023-02-23T05:30:30;58.53;;;28.63;;
51358;SDS011;37448;51.588;7.248;2023-02-23T05:32:32;62.45;;;29.88;;
51358;SDS011;37448;51.588;7.248;2023-02-23T05:34:33;62.08;;;31.52;;
51358;SDS011;37448;51.588;7.248;2023-02-23T05:36:34;62.92;;;29.75;;
51358;SDS011;37448;51.588;7.248;2023-02-23T05:38:36;71.15;;;30.73;;
51358;SDS011;37448;51.588;7.248;2023-02-23T05:40:37;62.30;;;29.25;;
51358;SDS011;37448;51.588;7.248;2023-02-23T05:42:38;68.00;;;31.00;;
51358;SDS011;37448;51.588;7.248;2023-02-23T05:44:39;62.65;;;31.40;;
51358;SDS011;37448;51.588;7.248;2023-02-23T05:46:39;63.78;;;29.50;;
51358;SDS011;37448;51.588;7.248;2023-02-23T05:48:40;66.97;;;31.30;;
51358;SDS011;37448;51.588;7.248;2023-02-23T05:50:40;66.50;;;32.95;;
51358;SDS011;37448;51.588;7.248;2023-02-23T05:52:41;65.85;;;30.98;;
51358;SDS011;37448;51.588;7.248;2023-02-23T05:54:41;63.95;;;29.83;;
51358;SDS011;37448;51.588;7.248;2023-02-23T05:56:42;68.32;;;30.73;;
51358;SDS011;37448;51.588;7.248;2023-02-23T05:58:42;60.65;;;29.23;;
51358;SDS011;37448;51.588;7.248;2023-02-23T06:00:43;78.63;;;32.15;;
51358;SDS011;37448;51.588;7.248;2023-02-23T06:02:43;66.38;;;30.40;;
51358;SDS011;37448;51.588;7.248;2023-02-23T06:04:43;67.30;;;33.58;;
51358;SDS011;37448;51.588;7.248;2023-02-23T06:06:45;70.13;;;32.25;;
51358;SDS011;37448;51.588;7.248;2023-02-23T06:08:46;69.15;;;31.70;;
51358;SDS011;37448;51.588;7.248;2023-02-23T06:10:46;68.20;;;33.10;;
51358;SDS011;37448;51.588;7.248;2023-02-23T06:12:46;66.93;;;30.55;;
51358;SDS011;37448;51.588;7.248;2023-02-23T06:14:47;71.82;;;31.30;;
51358;SDS011;37448;51.588;7.248;2023-02-23T06:16:49;71.45;;;32.33;;
51358;SDS011;37448;51.588;7.248;2023-02-23T06:18:50;72.57;;;32.40;;
51358;SDS011;37448;51.588;7.248;2023-02-23T06:20:50;62.95;;;29.75;;
51358;SDS011;37448;51.588;7.248;2023-02-23T06:22:50;74.68;;;34.30;;
51358;SDS011;37448;51.588;7.248;2023-02-23T06:24:51;67.38;;;29.33;;
51358;SDS011;37448;51.588;7.248;2023-02-23T06:26:51;70.47;;;30.00;;
51358;SDS011;37448;51.588;7.248;2023-02-23T06:28:51;65.00;;;30.02;;
51358;SDS011;37448;51.588;7.248;2023-02-23T06:30:52;67.43;;;30.45;;
51358;SDS011;37448;51.588;7.248;2023-02-23T06:32:53;75.03;;;34.00;;
51358;SDS011;37448;51.588;7.248;2023-02-23T06:34:55;71.07;;;31.67;;
51358;SDS011;37448;51.588;7.248;2023-02-23T06:36:55;69.82;;;31.48;;
51358;SDS011;37448;51.588;7.248;2023-02-23T06:38:56;70.85;;;32.05;;
51358;SDS011;37448;51.588;7.248;2023-02-23T06:40:57;64.20;;;31.65;;
51358;SDS011;37448;51.588;7.248;2023-02-23T06:42:57;71.30;;;32.53;;
51358;SDS011;37448;51.588;7.248;2023-02-23T06:44:58;61.42;;;31.83;;
51358;SDS011;37448;51.588;7.248;2023-02-23T06:46:58;58.78;;;28.95;;
51358;SDS011;37448;51.588;7.248;2023-02-23T06:48:59;62.75;;;29.33;;
51358;SDS011;37448;51.588;7.248;2023-02-23T06:50:59;61.50;;;30.33;;
51358;SDS011;37448;51.588;7.248;2023-02-23T06:53:00;53.60;;;26.80;;
51358;SDS011;37448;51.588;7.248;2023-02-23T06:55:00;56.15;;;28.80;;
51358;SDS011;37448;51.588;7.248;2023-02-23T06:57:00;56.22;;;28.80;;
51358;SDS011;37448;51.588;7.248;2023-02-23T06:59:01;56.08;;;29.08;;
51358;SDS011;37448;51.588;7.248;2023-02-23T07:01:01;57.28;;;28.17;;
51358;SDS011;37448;51.588;7.248;2023-02-23T07:03:01;58.30;;;27.00;;
51358;SDS011;37448;51.588;7.248;2023-02-23T07:05:03;52.78;;;27.02;;
51358;SDS011;37448;51.588;7.248;2023-02-23T07:07:03;49.95;;;24.92;;
51358;SDS011;37448;51.588;7.248;2023-02-23T07:09:04;51.95;;;25.67;;
51358;SDS011;37448;51.588;7.248;2023-02-23T07:11:08;50.53;;;25.83;;
51358;SDS011;37448;51.588;7.248;2023-02-23T07:13:10;58.13;;;26.55;;
51358;SDS011;37448;51.588;7.248;2023-02-23T07:15:14;53.75;;;27.42;;
51358;SDS011;37448;51.588;7.248;2023-02-23T07:17:17;58.20;;;26.48;;
51358;SDS011;37448;51.588;7.248;2023-02-23T07:19:17;52.20;;;27.40;;
51358;SDS011;37448;51.588;7.248;2023-02-23T07:21:18;51.15;;;26.58;;
51358;SDS011;37448;51.588;7.248;2023-02-23T07:23:19;56.40;;;27.13;;
51358;SDS011;37448;51.588;7.248;2023-02-23T07:25:21;63.95;;;28.75;;
51358;SDS011;37448;51.588;7.248;2023-02-23T07:27:21;66.43;;;28.02;;
51358;SDS011;37448;51.588;7.248;2023-02-23T07:29:22;61.55;;;27.45;;
51358;SDS011;37448;51.588;7.248;2023-02-23T07:31:27;60.35;;;27.00;;
51358;SDS011;37448;51.588;7.248;2023-02-23T07:33:27;60.85;;;29.02;;
51358;SDS011;37448;51.588;7.248;2023-02-23T07:35:28;62.63;;;29.13;;
51358;SDS011;37448;51.588;7.248;2023-02-23T07:37:28;59.88;;;28.67;;
51358;SDS011;37448;51.588;7.248;2023-02-23T07:39:28;61.50;;;29.45;;
51358;SDS011;37448;51.588;7.248;2023-02-23T07:41:30;60.25;;;28.05;;
51358;SDS011;37448;51.588;7.248;2023-02-23T07:43:30;62.83;;;30.15;;
51358;SDS011;37448;51.588;7.248;2023-02-23T07:45:31;65.53;;;29.35;;
51358;SDS011;37448;51.588;7.248;2023-02-23T07:47:31;56.40;;;27.77;;
51358;SDS011;37448;51.588;7.248;2023-02-23T07:49:32;64.05;;;27.30;;
51358;SDS011;37448;51.588;7.248;2023-02-23T07:51:33;65.28;;;28.58;;
51358;SDS011;37448;51.588;7.248;2023-02-23T07:53:33;62.90;;;28.10;;
51358;SDS011;37448;51.588;7.248;2023-02-23T07:55:33;61.35;;;27.55;;
51358;SDS011;37448;51.588;7.248;2023-02-23T07:57:34;66.32;;;28.00;;
51358;SDS011;37448;51.588;7.248;2023-02-23T07:59:34;64.07;;;27.17;;
51358;SDS011;37448;51.588;7.248;2023-02-23T08:01:36;59.58;;;25.73;;
51358;SDS011;37448;51.588;7.248;2023-02-23T08:03:36;58.88;;;27.98;;
51358;SDS011;37448;51.588;7.248;2023-02-23T08:05:37;61.78;;;28.98;;
51358;SDS011;37448;51.588;7.248;2023-02-23T08:07:39;61.22;;;28.52;;
51358;SDS011;37448;51.588;7.248;2023-02-23T08:09:39;63.92;;;27.80;;
51358;SDS011;37448;51.588;7.248;2023-02-23T08:11:39;66.95;;;29.73;;
51358;SDS011;37448;51.588;7.248;2023-02-23T08:13:40;62.15;;;28.85;;
51358;SDS011;37448;51.588;7.248;2023-02-23T08:15:41;63.00;;;28.23;;
51358;SDS011;37448;51.588;7.248;2023-02-23T08:17:41;61.30;;;27.08;;
51358;SDS011;37448;51.588;7.248;2023-02-23T08:19:42;54.22;;;27.38;;
51358;SDS011;37448;51.588;7.248;2023-02-23T08:21:42;64.82;;;29.38;;
51358;SDS011;37448;51.588;7.248;2023-02-23T08:23:43;53.95;;;26.60;;
51358;SDS011;37448;51.588;7.248;2023-02-23T08:25:43;56.63;;;26.38;;
51358;SDS011;37448;51.588;7.248;2023-02-23T08:27:44;55.88;;;28.92;;
51358;SDS011;37448;51.588;7.248;2023-02-23T08:29:45;55.00;;;26.90;;
51358;SDS011;37448;51.588;7.248;2023-02-23T08:31:45;58.47;;;26.95;;
51358;SDS011;37448;51.588;7.248;2023-02-23T08:33:46;61.67;;;26.05;;
51358;SDS011;37448;51.588;7.248;2023-02-23T08:35:46;57.60;;;25.27;;
51358;SDS011;37448;51.588;7.248;2023-02-23T08:37:46;57.40;;;26.45;;
51358;SDS011;37448;51.588;7.248;2023-02-23T08:39:47;66.75;;;28.05;;
51358;SDS011;37448;51.588;7.248;2023-02-23T08:41:47;63.58;;;28.95;;
51358;SDS011;37448;51.588;7.248;2023-02-23T08:43:47;66.63;;;27.45;;
51358;SDS011;37448;51.588;7.248;2023-02-23T08:45:48;56.10;;;26.58;;
51358;SDS011;37448;51.588;7.248;2023-02-23T08:47:48;65.35;;;27.77;;
51358;SDS011;37448;51.588;7.248;2023-02-23T08:49:49;57.60;;;24.13;;
51358;SDS011;37448;51.588;7.248;2023-02-23T08:51:50;69.68;;;30.13;;
51358;SDS011;37448;51.588;7.248;2023-02-23T08:53:51;69.55;;;30.63;;
51358;SDS011;37448;51.588;7.248;2023-02-23T08:55:55;63.70;;;27.92;;
51358;SDS011;37448;51.588;7.248;2023-02-23T08:57:56;66.65;;;29.20;;
51358;SDS011;37448;51.588;7.248;2023-02-23T08:59:57;68.40;;;25.85;;
51358;SDS011;37448;51.588;7.248;2023-02-23T09:01:58;71.95;;;26.77;;
51358;SDS011;37448;51.588;7.248;2023-02-23T09:03:58;73.35;;;29.20;;
51358;SDS011;37448;51.588;7.248;2023-02-23T09:06:04;65.50;;;27.42;;
51358;SDS011;37448;51.588;7.248;2023-02-23T09:08:07;69.78;;;28.17;;
51358;SDS011;37448;51.588;7.248;2023-02-23T09:10:09;69.53;;;30.60;;
51358;SDS011;37448;51.588;7.248;2023-02-23T09:12:12;71.15;;;27.27;;
51358;SDS011;37448;51.588;7.248;2023-02-23T09:14:12;77.38;;;30.13;;
51358;SDS011;37448;51.588;7.248;2023-02-23T09:16:12;66.85;;;27.50;;
51358;SDS011;37448;51.588;7.248;2023-02-23T09:18:13;69.75;;;26.05;;
51358;SDS011;37448;51.588;7.248;2023-02-23T09:20:14;69.97;;;28.15;;
51358;SDS011;37448;51.588;7.248;2023-02-23T09:22:15;64.45;;;25.35;;
51358;SDS011;37448;51.588;7.248;2023-02-23T09:24:18;65.50;;;29.55;;
51358;SDS011;37448;51.588;7.248;2023-02-23T09:26:21;64.18;;;27.67;;
51358;SDS011;37448;51.588;7.248;2023-02-23T09:28:22;64.13;;;26.70;;
51358;SDS011;37448;51.588;7.248;2023-02-23T09:30:23;64.50;;;26.38;;
51358;SDS011;37448;51.588;7.248;2023-02-23T09:32:23;57.42;;;26.45;;
51358;SDS011;37448;51.588;7.248;2023-02-23T09:34:23;59.38;;;27.42;;
51358;SDS011;37448;51.588;7.248;2023-02-23T09:36:24;61.47;;;26.00;;
51358;SDS011;37448;51.588;7.248;2023-02-23T09:38:25;58.58;;;24.70;;
51358;SDS011;37448;51.588;7.248;2023-02-23T09:40:27;55.63;;;25.42;;
51358;SDS011;37448;51.588;7.248;2023-02-23T09:42:45;60.20;;;26.98;;
51358;SDS011;37448;51.588;7.248;2023-02-23T09:45:02;60.45;;;23.67;;
51358;SDS011;37448;51.588;7.248;2023-02-23T09:49:32;51.85;;;23.45;;
51358;SDS011;37448;51.588;7.248;2023-02-23T09:51:38;51.22;;;23.25;;
51358;SDS011;37448;51.588;7.248;2023-02-23T09:53:52;51.05;;;22.73;;
51358;SDS011;37448;51.588;7.248;2023-02-23T09:55:56;42.90;;;19.67;;
51358;SDS011;37448;51.588;7.248;2023-02-23T09:58:14;45.45;;;21.17;;
51358;SDS011;37448;51.588;7.248;2023-02-23T10:00:23;44.00;;;19.23;;
51358;SDS011;37448;51.588;7.248;2023-02-23T10:02:33;48.13;;;19.90;;
51358;SDS011;37448;51.588;7.248;2023-02-23T10:04:42;42.45;;;19.85;;
51358;SDS011;37448;51.588;7.248;2023-02-23T10:06:55;43.25;;;19.88;;
51358;SDS011;37448;51.588;7.248;2023-02-23T10:15:56;35.22;;;17.27;;
51358;SDS011;37448;51.588;7.248;2023-02-23T10:22:50;37.78;;;16.25;;
51358;SDS011;37448;51.588;7.248;2023-02-23T10:24:55;35.35;;;17.83;;
51358;SDS011;37448;51.588;7.248;2023-02-23T10:27:05;38.30;;;16.73;;
51358;SDS011;37448;51.588;7.248;2023-02-23T10:29:14;29.17;;;15.20;;
51358;SDS011;37448;51.588;7.248;2023-02-23T10:31:25;30.00;;;15.65;;
51358;SDS011;37448;51.588;7.248;2023-02-23T10:33:32;33.10;;;16.95;;
51358;SDS011;37448;51.588;7.248;2023-02-23T10:35:36;36.35;;;15.80;;
51358;SDS011;37448;51.588;7.248;2023-02-23T10:37:38;37.40;;;17.50;;
51358;SDS011;37448;51.588;7.248;2023-02-23T10:39:38;34.58;;;16.08;;
51358;SDS011;37448;51.588;7.248;2023-02-23T10:41:41;37.47;;;16.10;;
51358;SDS011;37448;51.588;7.248;2023-02-23T10:43:43;36.70;;;16.05;;
51358;SDS011;37448;51.588;7.248;2023-02-23T10:45:47;34.92;;;15.93;;
51358;SDS011;37448;51.588;7.248;2023-02-23T10:47:54;34.03;;;16.52;;
51358;SDS011;37448;51.588;7.248;2023-02-23T10:49:59;39.28;;;16.10;;
51358;SDS011;37448;51.588;7.248;2023-02-23T10:51:59;37.70;;;16.02;;
51358;SDS011;37448;51.588;7.248;2023-02-23T11:00:58;49.05;;;18.42;;
51358;SDS011;37448;51.588;7.248;2023-02-23T11:03:01;43.20;;;16.13;;
51358;SDS011;37448;51.588;7.248;2023-02-23T11:05:04;39.95;;;16.27;;
51358;SDS011;37448;51.588;7.248;2023-02-23T11:07:11;41.78;;;16.52;;
51358;SDS011;37448;51.588;7.248;2023-02-23T11:09:15;42.83;;;18.67;;
51358;SDS011;37448;51.588;7.248;2023-02-23T11:11:26;40.60;;;17.77;;
51358;SDS011;37448;51.588;7.248;2023-02-23T11:13:37;37.10;;;16.80;;
51358;SDS011;37448;51.588;7.248;2023-02-23T11:15:39;44.05;;;18.08;;
51358;SDS011;37448;51.588;7.248;2023-02-23T11:17:43;40.63;;;16.00;;
51358;SDS011;37448;51.588;7.248;2023-02-23T11:19:44;31.85;;;14.63;;
51358;SDS011;37448;51.588;7.248;2023-02-23T11:21:47;34.35;;;15.20;;
51358;SDS011;37448;51.588;7.248;2023-02-23T11:23:51;37.13;;;15.75;;
51358;SDS011;37448;51.588;7.248;2023-02-23T11:25:56;33.22;;;12.98;;
51358;SDS011;37448;51.588;7.248;2023-02-23T11:27:59;32.40;;;14.75;;
51358;SDS011;37448;51.588;7.248;2023-02-23T11:30:01;36.72;;;15.45;;
51358;SDS011;37448;51.588;7.248;2023-02-23T11:32:12;31.73;;;13.13;;
51358;SDS011;37448;51.588;7.248;2023-02-23T11:34:18;30.95;;;14.05;;
51358;SDS011;37448;51.588;7.248;2023-02-23T11:38:24;33.78;;;14.02;;
51358;SDS011;37448;51.588;7.248;2023-02-23T11:40:28;33.25;;;14.35;;
51358;SDS011;37448;51.588;7.248;2023-02-23T11:42:31;34.42;;;14.40;;
51358;SDS011;37448;51.588;7.248;2023-02-23T11:44:32;32.50;;;13.45;;
51358;SDS011;37448;51.588;7.248;2023-02-23T11:46:36;33.75;;;13.50;;
51358;SDS011;37448;51.588;7.248;2023-02-23T11:50:54;32.45;;;14.82;;
51358;SDS011;37448;51.588;7.248;2023-02-23T11:52:56;31.67;;;13.20;;
51358;SDS011;37448;51.588;7.248;2023-02-23T11:55:04;35.67;;;13.13;;
51358;SDS011;37448;51.588;7.248;2023-02-23T11:57:06;35.17;;;14.20;;
51358;SDS011;37448;51.588;7.248;2023-02-23T11:59:12;37.45;;;14.60;;
51358;SDS011;37448;51.588;7.248;2023-02-23T12:03:22;31.90;;;13.07;;
51358;SDS011;37448;51.588;7.248;2023-02-23T12:05:26;29.35;;;13.80;;
51358;SDS011;37448;51.588;7.248;2023-02-23T12:07:38;33.13;;;13.27;;
51358;SDS011;37448;51.588;7.248;2023-02-23T12:09:45;29.27;;;12.40;;
51358;SDS011;37448;51.588;7.248;2023-02-23T12:12:10;30.95;;;13.52;;
51358;SDS011;37448;51.588;7.248;2023-02-23T12:16:34;25.65;;;11.30;;
51358;SDS011;37448;51.588;7.248;2023-02-23T12:23:32;31.02;;;12.80;;
51358;SDS011;37448;51.588;7.248;2023-02-23T12:25:41;29.48;;;10.48;;
51358;SDS011;37448;51.588;7.248;2023-02-23T12:28:04;27.52;;;11.40;;
51358;SDS011;37448;51.588;7.248;2023-02-23T12:30:37;26.40;;;11.85;;
51358;SDS011;37448;51.588;7.248;2023-02-23T12:34:54;30.70;;;13.40;;
51358;SDS011;37448;51.588;7.248;2023-02-23T12:37:03;29.30;;;12.90;;
51358;SDS011;37448;51.588;7.248;2023-02-23T12:39:25;28.25;;;12.50;;
51358;SDS011;37448;51.588;7.248;2023-02-23T12:44:28;25.90;;;9.95;;
51358;SDS011;37448;51.588;7.248;2023-02-23T12:46:34;20.90;;;9.88;;
51358;SDS011;37448;51.588;7.248;2023-02-23T12:48:45;20.50;;;9.05;;
51358;SDS011;37448;51.588;7.248;2023-02-23T12:50:53;24.17;;;11.05;;
51358;SDS011;37448;51.588;7.248;2023-02-23T12:52:58;22.77;;;9.65;;
51358;SDS011;37448;51.588;7.248;2023-02-23T12:55:15;25.88;;;11.07;;
51358;SDS011;37448;51.588;7.248;2023-02-23T12:57:31;25.63;;;9.75;;
51358;SDS011;37448;51.588;7.248;2023-02-23T13:00:03;21.83;;;9.25;;
51358;SDS011;37448;51.588;7.248;2023-02-23T13:02:29;22.85;;;10.65;;
51358;SDS011;37448;51.588;7.248;2023-02-23T13:09:10;26.17;;;10.18;;
51358;SDS011;37448;51.588;7.248;2023-02-23T13:14:03;23.55;;;9.68;;
51358;SDS011;37448;51.588;7.248;2023-02-23T13:16:20;21.90;;;10.20;;
51358;SDS011;37448;51.588;7.248;2023-02-23T13:19:16;24.45;;;9.73;;
51358;SDS011;37448;51.588;7.248;2023-02-23T13:28:02;25.55;;;11.05;;
51358;SDS011;37448;51.588;7.248;2023-02-23T13:30:08;25.58;;;10.27;;
51358;SDS011;37448;51.588;7.248;2023-02-23T13:32:10;24.95;;;9.85;;